sensor_id;sensor_type;location;lat;lon;timestamp;temperature;humidity
55436;DHT22;41307;53.142;6.430;2023-06-22T00:00:49;17.50;99.90
55436;DHT22;41307;53.142;6.430;2023-06-22T00:03:16;17.40;99.90
55436;DHT22;41307;53.142;6.430;2023-06-22T00:05:42;17.30;99.90
55436;DHT22;41307;53.142;6.430;2023-06-22T00:08:11;17.30;99.90
55436;DHT22;41307;53.142;6.430;2023-06-22T00:10:37;17.30;99.90
55436;DHT22;41307;53.142;6.430;2023-06-22T00:13:02;17.30;99.90
55436;DHT22;41307;53.142;6.430;2023-06-22T00:15:28;17.20;99.90
55436;DHT22;41307;53.142;6.430;2023-06-22T00:17:54;17.20;99.90
55436;DHT22;41307;53.142;6.430;2023-06-22T00:20:20;17.20;99.90
55436;DHT22;41307;53.142;6.430;2023-06-22T00:22:46;17.10;99.90
55436;DHT22;41307;53.142;6.430;2023-06-22T00:25:13;17.10;99.90
55436;DHT22;41307;53.142;6.430;2023-06-22T00:27:39;17.10;99.90
55436;DHT22;41307;53.142;6.430;2023-06-22T00:30:05;17.10;99.90
55436;DHT22;41307;53.142;6.430;2023-06-22T00:32:31;17.10;99.90
55436;DHT22;41307;53.142;6.430;2023-06-22T00:34:56;17.00;99.90
55436;DHT22;41307;53.142;6.430;2023-06-22T00:37:22;17.00;99.90
55436;DHT22;41307;53.142;6.430;2023-06-22T00:39:51;17.00;99.90
55436;DHT22;41307;53.142;6.430;2023-06-22T00:42:17;17.00;99.90
55436;DHT22;41307;53.142;6.430;2023-06-22T00:44:43;16.90;99.90
55436;DHT22;41307;53.142;6.430;2023-06-22T00:47:11;17.00;99.90
55436;DHT22;41307;53.142;6.430;2023-06-22T00:49:39;16.90;99.90
55436;DHT22;41307;53.142;6.430;2023-06-22T00:52:06;16.90;99.90
55436;DHT22;41307;53.142;6.430;2023-06-22T00:54:37;16.90;99.90
55436;DHT22;41307;53.142;6.430;2023-06-22T00:57:04;16.80;99.90
55436;DHT22;41307;53.142;6.430;2023-06-22T00:59:30;16.80;99.90
55436;DHT22;41307;53.142;6.430;2023-06-22T01:01:58;16.80;99.90
55436;DHT22;41307;53.142;6.430;2023-06-22T01:04:34;16.80;99.90
55436;DHT22;41307;53.142;6.430;2023-06-22T01:12:19;16.70;99.90
55436;DHT22;41307;53.142;6.430;2023-06-22T01:15:05;16.80;99.90
55436;DHT22;41307;53.142;6.430;2023-06-22T01:17:33;16.70;99.90
55436;DHT22;41307;53.142;6.430;2023-06-22T01:20:00;16.60;99.90
55436;DHT22;41307;53.142;6.430;2023-06-22T01:22:33;16.60;99.90
55436;DHT22;41307;53.142;6.430;2023-06-22T01:25:26;16.60;99.90
55436;DHT22;41307;53.142;6.430;2023-06-22T01:28:09;16.60;99.90
55436;DHT22;41307;53.142;6.430;2023-06-22T01:30:41;16.50;99.90
55436;DHT22;41307;53.142;6.430;2023-06-22T01:33:10;16.50;99.90
55436;DHT22;41307;53.142;6.430;2023-06-22T01:35:38;16.50;99.90
55436;DHT22;41307;53.142;6.430;2023-06-22T01:38:04;16.40;99.90
55436;DHT22;41307;53.142;6.430;2023-06-22T01:40:32;16.40;99.90
55436;DHT22;41307;53.142;6.430;2023-06-22T01:43:00;16.40;99.90
55436;DHT22;41307;53.142;6.430;2023-06-22T01:45:27;16.40;99.90
55436;DHT22;41307;53.142;6.430;2023-06-22T01:47:54;16.30;99.90
55436;DHT22;41307;53.142;6.430;2023-06-22T01:50:20;16.20;99.90
55436;DHT22;41307;53.142;6.430;2023-06-22T01:52:46;16.20;99.90
55436;DHT22;41307;53.142;6.430;2023-06-22T01:55:12;16.20;99.90
55436;DHT22;41307;53.142;6.430;2023-06-22T01:57:38;16.20;99.90
55436;DHT22;41307;53.142;6.430;2023-06-22T02:00:07;16.20;99.90
55436;DHT22;41307;53.142;6.430;2023-06-22T02:02:40;16.20;99.90
55436;DHT22;41307;53.142;6.430;2023-06-22T02:05:09;16.20;99.90
55436;DHT22;41307;53.142;6.430;2023-06-22T02:07:46;16.20;99.90
55436;DHT22;41307;53.142;6.430;2023-06-22T02:10:16;16.20;99.90
55436;DHT22;41307;53.142;6.430;2023-06-22T02:12:44;16.20;99.90
55436;DHT22;41307;53.142;6.430;2023-06-22T02:15:11;16.20;99.90
55436;DHT22;41307;53.142;6.430;2023-06-22T02:17:38;16.20;99.90
55436;DHT22;41307;53.142;6.430;2023-06-22T02:20:04;16.20;99.90
55436;DHT22;41307;53.142;6.430;2023-06-22T02:22:33;16.10;99.90
55436;DHT22;41307;53.142;6.430;2023-06-22T02:24:59;16.10;99.90
55436;DHT22;41307;53.142;6.430;2023-06-22T02:27:25;16.10;99.90
55436;DHT22;41307;53.142;6.430;2023-06-22T02:29:50;16.10;99.90
55436;DHT22;41307;53.142;6.430;2023-06-22T02:32:16;16.10;99.90
55436;DHT22;41307;53.142;6.430;2023-06-22T02:34:43;16.00;99.90
55436;DHT22;41307;53.142;6.430;2023-06-22T02:37:16;16.00;99.90
55436;DHT22;41307;53.142;6.430;2023-06-22T02:39:41;16.00;99.90
55436;DHT22;41307;53.142;6.430;2023-06-22T02:42:07;15.90;99.90
55436;DHT22;41307;53.142;6.430;2023-06-22T02:44:33;15.90;99.90
55436;DHT22;41307;53.142;6.430;2023-06-22T02:46:59;15.90;99.90
55436;DHT22;41307;53.142;6.430;2023-06-22T02:49:24;15.90;99.90
55436;DHT22;41307;53.142;6.430;2023-06-22T02:51:50;15.90;99.90
55436;DHT22;41307;53.142;6.430;2023-06-22T02:54:16;15.90;99.90
55436;DHT22;41307;53.142;6.430;2023-06-22T02:56:42;15.90;99.90
55436;DHT22;41307;53.142;6.430;2023-06-22T02:59:11;16.00;99.90
55436;DHT22;41307;53.142;6.430;2023-06-22T03:01:37;15.90;99.90
55436;DHT22;41307;53.142;6.430;2023-06-22T03:04:06;15.90;99.90
55436;DHT22;41307;53.142;6.430;2023-06-22T03:06:33;15.80;99.90
55436;DHT22;41307;53.142;6.430;2023-06-22T03:09:03;15.80;99.90
55436;DHT22;41307;53.142;6.430;2023-06-22T03:11:33;15.80;99.90
55436;DHT22;41307;53.142;6.430;2023-06-22T03:14:02;15.90;99.90
55436;DHT22;41307;53.142;6.430;2023-06-22T03:16:28;15.80;99.90
55436;DHT22;41307;53.142;6.430;2023-06-22T03:18:54;15.80;99.90
55436;DHT22;41307;53.142;6.430;2023-06-22T03:21:22;15.80;99.90
55436;DHT22;41307;53.142;6.430;2023-06-22T03:23:48;15.80;99.90
55436;DHT22;41307;53.142;6.430;2023-06-22T03:26:17;15.80;99.90
55436;DHT22;41307;53.142;6.430;2023-06-22T03:28:43;15.80;99.90
55436;DHT22;41307;53.142;6.430;2023-06-22T03:31:08;15.80;99.90
55436;DHT22;41307;53.142;6.430;2023-06-22T03:33:34;15.90;99.90
55436;DHT22;41307;53.142;6.430;2023-06-22T03:36:00;15.80;99.90
55436;DHT22;41307;53.142;6.430;2023-06-22T03:38:26;15.80;99.90
55436;DHT22;41307;53.142;6.430;2023-06-22T03:40:52;15.90;99.90
55436;DHT22;41307;53.142;6.430;2023-06-22T03:43:17;15.90;99.90
55436;DHT22;41307;53.142;6.430;2023-06-22T03:45:43;15.90;99.90
55436;DHT22;41307;53.142;6.430;2023-06-22T03:48:11;15.90;99.90
55436;DHT22;41307;53.142;6.430;2023-06-22T03:50:37;15.90;99.90
55436;DHT22;41307;53.142;6.430;2023-06-22T03:53:03;15.90;99.90
55436;DHT22;41307;53.142;6.430;2023-06-22T03:55:29;15.90;99.90
55436;DHT22;41307;53.142;6.430;2023-06-22T03:57:55;15.90;99.90
55436;DHT22;41307;53.142;6.430;2023-06-22T04:00:23;15.80;99.90
55436;DHT22;41307;53.142;6.430;2023-06-22T04:02:48;15.80;99.90
55436;DHT22;41307;53.142;6.430;2023-06-22T04:05:15;15.90;99.90
55436;DHT22;41307;53.142;6.430;2023-06-22T04:07:43;15.90;99.90
55436;DHT22;41307;53.142;6.430;2023-06-22T04:10:08;15.90;99.90
55436;DHT22;41307;53.142;6.430;2023-06-22T04:12:34;16.00;99.90
55436;DHT22;41307;53.142;6.430;2023-06-22T04:15:00;16.00;99.90
55436;DHT22;41307;53.142;6.430;2023-06-22T04:17:26;16.00;99.90
55436;DHT22;41307;53.142;6.430;2023-06-22T04:19:52;16.10;99.90
55436;DHT22;41307;53.142;6.430;2023-06-22T04:22:17;16.10;99.90
55436;DHT22;41307;53.142;6.430;2023-06-22T04:24:44;16.10;99.90
55436;DHT22;41307;53.142;6.430;2023-06-22T04:27:10;16.20;99.90
55436;DHT22;41307;53.142;6.430;2023-06-22T04:29:36;16.20;99.90
55436;DHT22;41307;53.142;6.430;2023-06-22T04:32:01;16.40;99.90
55436;DHT22;41307;53.142;6.430;2023-06-22T04:34:30;16.40;99.90
55436;DHT22;41307;53.142;6.430;2023-06-22T04:36:56;16.60;99.90
55436;DHT22;41307;53.142;6.430;2023-06-22T04:39:23;16.90;99.90
55436;DHT22;41307;53.142;6.430;2023-06-22T04:41:49;17.40;99.90
55436;DHT22;41307;53.142;6.430;2023-06-22T04:44:17;17.90;99.90
55436;DHT22;41307;53.142;6.430;2023-06-22T04:46:53;18.20;99.90
55436;DHT22;41307;53.142;6.430;2023-06-22T04:49:21;18.30;99.90
55436;DHT22;41307;53.142;6.430;2023-06-22T04:51:47;18.40;99.90
55436;DHT22;41307;53.142;6.430;2023-06-22T04:54:13;18.70;99.90
55436;DHT22;41307;53.142;6.430;2023-06-22T04:56:39;19.10;99.90
55436;DHT22;41307;53.142;6.430;2023-06-22T04:59:07;19.50;99.90
55436;DHT22;41307;53.142;6.430;2023-06-22T05:01:33;19.70;99.90
55436;DHT22;41307;53.142;6.430;2023-06-22T05:04:00;19.90;99.90
55436;DHT22;41307;53.142;6.430;2023-06-22T05:06:27;20.00;99.90
55436;DHT22;41307;53.142;6.430;2023-06-22T05:08:57;20.10;99.90
55436;DHT22;41307;53.142;6.430;2023-06-22T05:11:28;20.30;99.90
55436;DHT22;41307;53.142;6.430;2023-06-22T05:13:54;20.70;99.90
55436;DHT22;41307;53.142;6.430;2023-06-22T05:16:21;21.20;99.90
55436;DHT22;41307;53.142;6.430;2023-06-22T05:18:54;21.70;99.90
55436;DHT22;41307;53.142;6.430;2023-06-22T05:21:25;22.30;99.90
55436;DHT22;41307;53.142;6.430;2023-06-22T05:23:52;23.00;99.90
55436;DHT22;41307;53.142;6.430;2023-06-22T05:26:21;23.60;99.90
55436;DHT22;41307;53.142;6.430;2023-06-22T05:28:48;24.20;99.90
55436;DHT22;41307;53.142;6.430;2023-06-22T05:31:14;24.70;99.90
55436;DHT22;41307;53.142;6.430;2023-06-22T05:33:43;25.00;99.90
55436;DHT22;41307;53.142;6.430;2023-06-22T05:36:09;25.40;99.90
55436;DHT22;41307;53.142;6.430;2023-06-22T05:38:36;25.70;99.90
55436;DHT22;41307;53.142;6.430;2023-06-22T05:41:02;25.90;99.90
55436;DHT22;41307;53.142;6.430;2023-06-22T05:43:28;26.10;99.90
55436;DHT22;41307;53.142;6.430;2023-06-22T05:45:56;26.40;99.90
55436;DHT22;41307;53.142;6.430;2023-06-22T05:48:22;26.30;99.90
55436;DHT22;41307;53.142;6.430;2023-06-22T05:50:48;26.40;99.90
55436;DHT22;41307;53.142;6.430;2023-06-22T05:53:14;26.30;99.90
55436;DHT22;41307;53.142;6.430;2023-06-22T05:55:40;26.10;99.90
55436;DHT22;41307;53.142;6.430;2023-06-22T05:58:06;26.10;99.90
55436;DHT22;41307;53.142;6.430;2023-06-22T06:00:32;25.90;99.90
55436;DHT22;41307;53.142;6.430;2023-06-22T06:02:58;26.00;99.90
55436;DHT22;41307;53.142;6.430;2023-06-22T06:05:32;26.00;99.90
55436;DHT22;41307;53.142;6.430;2023-06-22T06:08:00;26.10;99.90
55436;DHT22;41307;53.142;6.430;2023-06-22T06:10:26;26.10;99.90
55436;DHT22;41307;53.142;6.430;2023-06-22T06:12:52;26.00;99.90
55436;DHT22;41307;53.142;6.430;2023-06-22T06:15:18;26.00;99.90
55436;DHT22;41307;53.142;6.430;2023-06-22T06:17:50;25.70;99.90
55436;DHT22;41307;53.142;6.430;2023-06-22T06:20:19;25.60;99.90
55436;DHT22;41307;53.142;6.430;2023-06-22T06:22:45;25.70;99.90
55436;DHT22;41307;53.142;6.430;2023-06-22T06:25:11;26.00;99.90
55436;DHT22;41307;53.142;6.430;2023-06-22T06:27:48;26.00;99.90
55436;DHT22;41307;53.142;6.430;2023-06-22T06:30:16;25.70;99.90
55436;DHT22;41307;53.142;6.430;2023-06-22T06:32:42;25.80;99.90
55436;DHT22;41307;53.142;6.430;2023-06-22T06:35:11;26.00;99.90
55436;DHT22;41307;53.142;6.430;2023-06-22T06:37:40;26.20;99.90
55436;DHT22;41307;53.142;6.430;2023-06-22T06:40:07;26.80;99.90
55436;DHT22;41307;53.142;6.430;2023-06-22T06:42:39;27.30;99.90
55436;DHT22;41307;53.142;6.430;2023-06-22T06:45:18;27.40;99.90
55436;DHT22;41307;53.142;6.430;2023-06-22T06:47:44;27.10;99.90
55436;DHT22;41307;53.142;6.430;2023-06-22T06:50:10;26.80;99.90
55436;DHT22;41307;53.142;6.430;2023-06-22T06:52:36;26.60;99.90
55436;DHT22;41307;53.142;6.430;2023-06-22T06:55:02;26.50;99.90
55436;DHT22;41307;53.142;6.430;2023-06-22T06:57:37;26.50;99.90
55436;DHT22;41307;53.142;6.430;2023-06-22T07:00:04;26.40;99.90
55436;DHT22;41307;53.142;6.430;2023-06-22T07:02:38;26.50;99.90
55436;DHT22;41307;53.142;6.430;2023-06-22T07:05:04;26.70;99.90
55436;DHT22;41307;53.142;6.430;2023-06-22T07:07:31;26.90;99.90
55436;DHT22;41307;53.142;6.430;2023-06-22T07:09:57;27.50;99.90
55436;DHT22;41307;53.142;6.430;2023-06-22T07:12:23;28.20;99.90
55436;DHT22;41307;53.142;6.430;2023-06-22T07:14:49;28.80;99.90
55436;DHT22;41307;53.142;6.430;2023-06-22T07:17:15;28.90;99.90
55436;DHT22;41307;53.142;6.430;2023-06-22T07:19:41;29.00;99.90
55436;DHT22;41307;53.142;6.430;2023-06-22T07:22:07;29.00;99.90
55436;DHT22;41307;53.142;6.430;2023-06-22T07:24:33;29.10;99.90
55436;DHT22;41307;53.142;6.430;2023-06-22T07:26:59;29.20;99.90
55436;DHT22;41307;53.142;6.430;2023-06-22T07:29:25;29.50;99.90
55436;DHT22;41307;53.142;6.430;2023-06-22T07:31:52;30.00;99.60
55436;DHT22;41307;53.142;6.430;2023-06-22T07:34:18;30.30;98.40
55436;DHT22;41307;53.142;6.430;2023-06-22T07:36:45;30.60;97.30
55436;DHT22;41307;53.142;6.430;2023-06-22T07:39:11;30.50;96.00
55436;DHT22;41307;53.142;6.430;2023-06-22T07:41:39;30.40;94.60
55436;DHT22;41307;53.142;6.430;2023-06-22T07:44:06;30.10;93.40
55436;DHT22;41307;53.142;6.430;2023-06-22T07:46:33;29.80;93.50
55436;DHT22;41307;53.142;6.430;2023-06-22T07:48:59;29.80;93.40
55436;DHT22;41307;53.142;6.430;2023-06-22T07:51:25;29.70;91.70
55436;DHT22;41307;53.142;6.430;2023-06-22T07:53:51;29.50;91.20
55436;DHT22;41307;53.142;6.430;2023-06-22T07:56:17;29.30;90.50
55436;DHT22;41307;53.142;6.430;2023-06-22T07:58:47;29.30;91.10
55436;DHT22;41307;53.142;6.430;2023-06-22T08:01:16;29.30;90.60
55436;DHT22;41307;53.142;6.430;2023-06-22T08:03:42;29.50;91.10
55436;DHT22;41307;53.142;6.430;2023-06-22T08:06:09;29.60;90.70
55436;DHT22;41307;53.142;6.430;2023-06-22T08:08:36;29.80;90.40
55436;DHT22;41307;53.142;6.430;2023-06-22T08:11:02;29.70;90.50
55436;DHT22;41307;53.142;6.430;2023-06-22T08:13:28;29.60;90.20
55436;DHT22;41307;53.142;6.430;2023-06-22T08:15:54;29.50;90.20
55436;DHT22;41307;53.142;6.430;2023-06-22T08:18:20;29.60;90.30
55436;DHT22;41307;53.142;6.430;2023-06-22T08:20:46;29.70;89.50
55436;DHT22;41307;53.142;6.430;2023-06-22T08:23:11;29.90;89.90
55436;DHT22;41307;53.142;6.430;2023-06-22T08:25:37;30.00;89.50
55436;DHT22;41307;53.142;6.430;2023-06-22T08:28:04;30.10;88.90
55436;DHT22;41307;53.142;6.430;2023-06-22T08:30:30;30.10;86.30
55436;DHT22;41307;53.142;6.430;2023-06-22T08:32:56;30.10;87.70
55436;DHT22;41307;53.142;6.430;2023-06-22T08:35:25;30.00;88.60
55436;DHT22;41307;53.142;6.430;2023-06-22T08:37:51;30.20;87.40
55436;DHT22;41307;53.142;6.430;2023-06-22T08:40:21;30.30;87.80
55436;DHT22;41307;53.142;6.430;2023-06-22T08:42:47;30.40;86.10
55436;DHT22;41307;53.142;6.430;2023-06-22T08:45:13;30.50;86.70
55436;DHT22;41307;53.142;6.430;2023-06-22T08:47:40;30.60;85.70
55436;DHT22;41307;53.142;6.430;2023-06-22T08:50:10;30.60;85.00
55436;DHT22;41307;53.142;6.430;2023-06-22T08:52:37;30.60;86.00
55436;DHT22;41307;53.142;6.430;2023-06-22T08:55:06;30.60;84.70
55436;DHT22;41307;53.142;6.430;2023-06-22T08:57:33;30.60;83.80
55436;DHT22;41307;53.142;6.430;2023-06-22T08:59:58;30.40;83.90
55436;DHT22;41307;53.142;6.430;2023-06-22T09:02:27;30.40;84.40
55436;DHT22;41307;53.142;6.430;2023-06-22T09:04:57;30.40;84.00
55436;DHT22;41307;53.142;6.430;2023-06-22T09:07:23;30.40;84.00
55436;DHT22;41307;53.142;6.430;2023-06-22T09:09:50;30.20;84.20
55436;DHT22;41307;53.142;6.430;2023-06-22T09:12:16;30.30;84.30
55436;DHT22;41307;53.142;6.430;2023-06-22T09:14:42;30.30;84.40
55436;DHT22;41307;53.142;6.430;2023-06-22T09:17:08;30.50;85.20
55436;DHT22;41307;53.142;6.430;2023-06-22T09:19:34;30.40;83.70
55436;DHT22;41307;53.142;6.430;2023-06-22T09:22:00;30.20;83.30
55436;DHT22;41307;53.142;6.430;2023-06-22T09:24:26;30.20;84.30
55436;DHT22;41307;53.142;6.430;2023-06-22T09:26:51;30.00;84.20
55436;DHT22;41307;53.142;6.430;2023-06-22T09:29:17;30.00;82.60
55436;DHT22;41307;53.142;6.430;2023-06-22T09:31:43;30.30;83.60
55436;DHT22;41307;53.142;6.430;2023-06-22T09:34:09;30.10;82.10
55436;DHT22;41307;53.142;6.430;2023-06-22T09:36:35;30.10;82.40
55436;DHT22;41307;53.142;6.430;2023-06-22T09:39:01;29.80;81.60
55436;DHT22;41307;53.142;6.430;2023-06-22T09:41:31;29.90;83.20
55436;DHT22;41307;53.142;6.430;2023-06-22T09:43:57;30.20;83.20
55436;DHT22;41307;53.142;6.430;2023-06-22T09:46:23;30.20;81.80
55436;DHT22;41307;53.142;6.430;2023-06-22T09:48:51;30.30;82.10
55436;DHT22;41307;53.142;6.430;2023-06-22T09:51:16;30.30;82.20
55436;DHT22;41307;53.142;6.430;2023-06-22T09:53:42;30.40;81.80
55436;DHT22;41307;53.142;6.430;2023-06-22T09:56:09;30.70;82.10
55436;DHT22;41307;53.142;6.430;2023-06-22T09:58:43;30.60;81.90
55436;DHT22;41307;53.142;6.430;2023-06-22T10:01:09;30.70;81.70
55436;DHT22;41307;53.142;6.430;2023-06-22T10:03:36;30.70;80.60
55436;DHT22;41307;53.142;6.430;2023-06-22T10:06:02;30.60;81.00
55436;DHT22;41307;53.142;6.430;2023-06-22T10:08:28;30.60;80.00
55436;DHT22;41307;53.142;6.430;2023-06-22T10:10:54;30.60;79.80
55436;DHT22;41307;53.142;6.430;2023-06-22T10:13:20;30.60;80.00
55436;DHT22;41307;53.142;6.430;2023-06-22T10:15:46;30.20;79.60
55436;DHT22;41307;53.142;6.430;2023-06-22T10:18:18;30.20;79.70
55436;DHT22;41307;53.142;6.430;2023-06-22T10:20:48;30.30;79.30
55436;DHT22;41307;53.142;6.430;2023-06-22T10:23:15;30.30;79.20
55436;DHT22;41307;53.142;6.430;2023-06-22T10:25:41;30.60;79.90
55436;DHT22;41307;53.142;6.430;2023-06-22T10:28:10;30.90;79.50
55436;DHT22;41307;53.142;6.430;2023-06-22T10:30:36;31.00;79.70
55436;DHT22;41307;53.142;6.430;2023-06-22T10:33:01;31.20;79.20
55436;DHT22;41307;53.142;6.430;2023-06-22T10:35:27;30.90;78.00
55436;DHT22;41307;53.142;6.430;2023-06-22T10:37:53;30.90;78.20
55436;DHT22;41307;53.142;6.430;2023-06-22T10:40:20;30.80;78.60
55436;DHT22;41307;53.142;6.430;2023-06-22T10:42:45;31.10;78.50
55436;DHT22;41307;53.142;6.430;2023-06-22T10:45:14;31.10;76.90
55436;DHT22;41307;53.142;6.430;2023-06-22T10:47:39;31.10;75.30
55436;DHT22;41307;53.142;6.430;2023-06-22T10:50:08;30.90;75.50
55436;DHT22;41307;53.142;6.430;2023-06-22T10:52:33;30.70;75.30
55436;DHT22;41307;53.142;6.430;2023-06-22T10:54:59;30.70;74.80
55436;DHT22;41307;53.142;6.430;2023-06-22T10:57:25;30.60;73.70
55436;DHT22;41307;53.142;6.430;2023-06-22T10:59:51;30.90;74.80
55436;DHT22;41307;53.142;6.430;2023-06-22T11:02:17;30.60;74.20
55436;DHT22;41307;53.142;6.430;2023-06-22T11:04:42;30.40;74.40
55436;DHT22;41307;53.142;6.430;2023-06-22T11:07:12;30.30;74.40
55436;DHT22;41307;53.142;6.430;2023-06-22T11:09:38;30.30;75.10
55436;DHT22;41307;53.142;6.430;2023-06-22T11:12:05;30.50;75.00
55436;DHT22;41307;53.142;6.430;2023-06-22T11:14:31;30.70;74.70
55436;DHT22;41307;53.142;6.430;2023-06-22T11:16:59;30.50;74.30
55436;DHT22;41307;53.142;6.430;2023-06-22T11:19:25;30.30;74.70
55436;DHT22;41307;53.142;6.430;2023-06-22T11:21:50;29.90;74.10
55436;DHT22;41307;53.142;6.430;2023-06-22T11:24:16;30.00;74.90
55436;DHT22;41307;53.142;6.430;2023-06-22T11:26:42;30.10;76.00
55436;DHT22;41307;53.142;6.430;2023-06-22T11:29:08;30.10;75.80
55436;DHT22;41307;53.142;6.430;2023-06-22T11:31:35;30.00;75.40
55436;DHT22;41307;53.142;6.430;2023-06-22T11:34:01;29.80;75.30
55436;DHT22;41307;53.142;6.430;2023-06-22T11:36:27;29.80;75.30
55436;DHT22;41307;53.142;6.430;2023-06-22T11:38:54;29.80;75.10
55436;DHT22;41307;53.142;6.430;2023-06-22T11:41:22;29.80;75.50
55436;DHT22;41307;53.142;6.430;2023-06-22T11:43:48;29.70;74.80
55436;DHT22;41307;53.142;6.430;2023-06-22T11:46:14;29.70;74.90
55436;DHT22;41307;53.142;6.430;2023-06-22T11:48:40;29.80;74.70
55436;DHT22;41307;53.142;6.430;2023-06-22T11:51:06;29.50;73.60
55436;DHT22;41307;53.142;6.430;2023-06-22T11:53:34;29.40;74.30
55436;DHT22;41307;53.142;6.430;2023-06-22T11:56:00;29.30;74.10
55436;DHT22;41307;53.142;6.430;2023-06-22T11:58:26;29.40;74.50
55436;DHT22;41307;53.142;6.430;2023-06-22T12:00:54;29.40;74.70
55436;DHT22;41307;53.142;6.430;2023-06-22T12:03:20;29.40;74.50
55436;DHT22;41307;53.142;6.430;2023-06-22T12:05:47;29.30;75.10
55436;DHT22;41307;53.142;6.430;2023-06-22T12:08:13;29.00;75.20
55436;DHT22;41307;53.142;6.430;2023-06-22T12:10:39;28.90;76.00
55436;DHT22;41307;53.142;6.430;2023-06-22T12:13:05;28.80;76.50
55436;DHT22;41307;53.142;6.430;2023-06-22T12:15:31;28.80;76.50
55436;DHT22;41307;53.142;6.430;2023-06-22T12:17:56;28.60;76.40
55436;DHT22;41307;53.142;6.430;2023-06-22T12:20:22;28.70;76.90
55436;DHT22;41307;53.142;6.430;2023-06-22T12:22:48;28.60;78.00
55436;DHT22;41307;53.142;6.430;2023-06-22T12:25:16;28.50;77.70
55436;DHT22;41307;53.142;6.430;2023-06-22T12:27:42;28.30;77.70
55436;DHT22;41307;53.142;6.430;2023-06-22T12:30:08;28.10;78.70
55436;DHT22;41307;53.142;6.430;2023-06-22T12:32:34;28.00;78.80
55436;DHT22;41307;53.142;6.430;2023-06-22T12:35:00;28.00;79.70
55436;DHT22;41307;53.142;6.430;2023-06-22T12:37:26;27.90;80.00
55436;DHT22;41307;53.142;6.430;2023-06-22T12:39:53;27.80;80.30
55436;DHT22;41307;53.142;6.430;2023-06-22T12:42:19;27.90;81.40
55436;DHT22;41307;53.142;6.430;2023-06-22T12:44:46;27.90;81.30
55436;DHT22;41307;53.142;6.430;2023-06-22T12:47:12;27.80;81.80
55436;DHT22;41307;53.142;6.430;2023-06-22T12:49:38;27.80;82.50
55436;DHT22;41307;53.142;6.430;2023-06-22T12:52:09;27.80;83.00
55436;DHT22;41307;53.142;6.430;2023-06-22T12:54:36;27.80;83.00
55436;DHT22;41307;53.142;6.430;2023-06-22T12:57:02;27.70;82.80
55436;DHT22;41307;53.142;6.430;2023-06-22T12:59:27;27.50;83.30
55436;DHT22;41307;53.142;6.430;2023-06-22T13:01:53;27.40;83.70
55436;DHT22;41307;53.142;6.430;2023-06-22T13:04:20;27.30;83.80
55436;DHT22;41307;53.142;6.430;2023-06-22T13:06:47;27.30;84.30
55436;DHT22;41307;53.142;6.430;2023-06-22T13:09:14;27.40;84.50
55436;DHT22;41307;53.142;6.430;2023-06-22T13:11:41;27.50;84.50
55436;DHT22;41307;53.142;6.430;2023-06-22T13:14:06;27.60;84.90
55436;DHT22;41307;53.142;6.430;2023-06-22T13:16:32;27.60;85.50
55436;DHT22;41307;53.142;6.430;2023-06-22T13:18:58;27.60;85.10
55436;DHT22;41307;53.142;6.430;2023-06-22T13:21:24;27.40;85.60
55436;DHT22;41307;53.142;6.430;2023-06-22T13:23:49;27.40;86.10
55436;DHT22;41307;53.142;6.430;2023-06-22T13:26:15;27.40;86.00
55436;DHT22;41307;53.142;6.430;2023-06-22T13:28:41;27.50;86.50
55436;DHT22;41307;53.142;6.430;2023-06-22T13:31:06;27.40;86.30
55436;DHT22;41307;53.142;6.430;2023-06-22T13:33:32;27.30;86.20
55436;DHT22;41307;53.142;6.430;2023-06-22T13:35:58;27.20;86.30
55436;DHT22;41307;53.142;6.430;2023-06-22T13:38:23;27.00;86.10
55436;DHT22;41307;53.142;6.430;2023-06-22T13:40:50;26.90;86.30
55436;DHT22;41307;53.142;6.430;2023-06-22T13:43:16;26.90;86.70
55436;DHT22;41307;53.142;6.430;2023-06-22T13:45:42;26.80;86.50
55436;DHT22;41307;53.142;6.430;2023-06-22T13:48:09;26.70;86.80
55436;DHT22;41307;53.142;6.430;2023-06-22T13:50:35;26.80;87.30
55436;DHT22;41307;53.142;6.430;2023-06-22T13:53:01;26.60;87.50
55436;DHT22;41307;53.142;6.430;2023-06-22T13:55:26;26.40;87.60
55436;DHT22;41307;53.142;6.430;2023-06-22T13:57:52;26.40;88.10
55436;DHT22;41307;53.142;6.430;2023-06-22T14:00:18;26.40;87.80
55436;DHT22;41307;53.142;6.430;2023-06-22T14:02:44;26.30;87.80
55436;DHT22;41307;53.142;6.430;2023-06-22T14:05:10;26.20;87.50
55436;DHT22;41307;53.142;6.430;2023-06-22T14:07:36;26.10;87.60
55436;DHT22;41307;53.142;6.430;2023-06-22T14:10:05;26.00;88.20
55436;DHT22;41307;53.142;6.430;2023-06-22T14:12:31;25.90;87.70
55436;DHT22;41307;53.142;6.430;2023-06-22T14:14:57;25.80;87.90
55436;DHT22;41307;53.142;6.430;2023-06-22T14:17:23;25.60;88.10
55436;DHT22;41307;53.142;6.430;2023-06-22T14:19:51;25.40;88.40
55436;DHT22;41307;53.142;6.430;2023-06-22T14:22:21;25.30;88.70
55436;DHT22;41307;53.142;6.430;2023-06-22T14:24:47;25.20;89.20
55436;DHT22;41307;53.142;6.430;2023-06-22T14:27:13;25.20;89.40
55436;DHT22;41307;53.142;6.430;2023-06-22T14:29:39;25.10;89.80
55436;DHT22;41307;53.142;6.430;2023-06-22T14:32:05;25.00;89.90
55436;DHT22;41307;53.142;6.430;2023-06-22T14:34:35;24.90;90.10
55436;DHT22;41307;53.142;6.430;2023-06-22T14:37:06;24.90;90.30
55436;DHT22;41307;53.142;6.430;2023-06-22T14:39:32;24.80;90.30
55436;DHT22;41307;53.142;6.430;2023-06-22T14:41:57;24.80;90.50
55436;DHT22;41307;53.142;6.430;2023-06-22T14:44:23;24.80;90.30
55436;DHT22;41307;53.142;6.430;2023-06-22T14:46:49;24.80;90.20
55436;DHT22;41307;53.142;6.430;2023-06-22T14:49:14;24.80;90.10
55436;DHT22;41307;53.142;6.430;2023-06-22T14:51:40;24.60;90.00
55436;DHT22;41307;53.142;6.430;2023-06-22T14:54:06;24.60;90.00
55436;DHT22;41307;53.142;6.430;2023-06-22T14:56:32;24.60;90.20
55436;DHT22;41307;53.142;6.430;2023-06-22T14:58:57;24.60;90.70
55436;DHT22;41307;53.142;6.430;2023-06-22T15:01:23;24.60;90.60
55436;DHT22;41307;53.142;6.430;2023-06-22T15:03:49;24.60;90.60
55436;DHT22;41307;53.142;6.430;2023-06-22T15:06:14;24.60;90.40
55436;DHT22;41307;53.142;6.430;2023-06-22T15:08:41;24.50;90.50
55436;DHT22;41307;53.142;6.430;2023-06-22T15:11:07;24.50;90.50
55436;DHT22;41307;53.142;6.430;2023-06-22T15:13:33;24.40;90.60
55436;DHT22;41307;53.142;6.430;2023-06-22T15:16:03;24.40;91.00
55436;DHT22;41307;53.142;6.430;2023-06-22T15:18:30;24.30;91.20
55436;DHT22;41307;53.142;6.430;2023-06-22T15:20:58;24.20;91.30
55436;DHT22;41307;53.142;6.430;2023-06-22T15:23:26;24.20;91.20
55436;DHT22;41307;53.142;6.430;2023-06-22T15:25:51;24.10;90.60
55436;DHT22;41307;53.142;6.430;2023-06-22T15:28:17;24.00;90.50
55436;DHT22;41307;53.142;6.430;2023-06-22T15:30:43;23.90;90.30
55436;DHT22;41307;53.142;6.430;2023-06-22T15:33:09;23.90;90.40